Time;durP1;ratioP1;P1;durP2;ratioP2;P2;SDS_P1;SDS_P2;PMS_P1;PMS_P2;Temp;Humidity;BMP_temperature;BMP_pressure;BME280_temperature;BME280_humidity;BME280_pressure;Samples;Min_cycle;Max_cycle;Signal;HPM_P1;HPM_P2
2022/08/13 00:01:40;;;;;;;5.93;2.90;;;19.70;99.90;;;;;;5031316;28;20053;-62
2022/08/13 00:04:14;;;;;;;4.15;3.00;;;19.60;99.90;;;;;;5031767;28;20473;-63
2022/08/13 00:09:09;;;;;;;4.07;2.65;;;19.80;99.90;;;;;;5032480;28;20052;-63
2022/08/13 00:14:24;;;;;;;7.68;2.95;;;19.90;99.90;;;;;;5030399;28;20160;-62
2022/08/13 00:16:50;;;;;;;8.98;2.90;;;19.90;99.90;;;;;;5030451;28;20661;-62
2022/08/13 00:19:19;;;;;;;6.88;2.65;;;19.90;99.90;;;;;;5029326;28;20021;-62
2022/08/13 00:21:46;;;;;;;4.60;2.45;;;19.80;99.90;;;;;;5030486;28;20036;-62
2022/08/13 00:24:12;;;;;;;6.18;3.05;;;19.80;99.90;;;;;;5030122;28;20025;-61
2022/08/13 00:26:37;;;;;;;4.13;3.10;;;19.80;99.90;;;;;;5030993;28;20041;-62
2022/08/13 00:29:03;;;;;;;3.58;2.63;;;19.80;99.90;;;;;;5031170;28;20036;-62
2022/08/13 00:31:31;;;;;;;5.57;2.70;;;19.70;99.90;;;;;;5029719;28;20079;-63
2022/08/13 00:33:58;;;;;;;7.82;3.17;;;19.80;99.90;;;;;;5031665;28;20449;-62
2022/08/13 00:36:24;;;;;;;9.48;3.45;;;19.70;99.90;;;;;;5029203;28;20102;-63
2022/08/13 00:38:52;;;;;;;3.85;2.55;;;19.70;99.90;;;;;;5031652;28;20389;-63
2022/08/13 00:44:04;;;;;;;7.75;3.00;;;19.70;99.90;;;;;;5031155;28;20056;-64
2022/08/13 00:46:30;;;;;;;6.95;3.00;;;19.70;99.90;;;;;;5029673;28;20033;-63
2022/08/13 00:48:56;;;;;;;5.32;2.63;;;19.70;99.90;;;;;;5031429;28;20532;-63
2022/08/13 00:51:24;;;;;;;5.22;2.78;;;19.70;99.90;;;;;;5029316;28;20041;-63
2022/08/13 00:53:50;;;;;;;7.88;3.03;;;19.60;99.90;;;;;;5030403;28;20025;-63
2022/08/13 00:56:17;;;;;;;6.15;2.65;;;19.60;99.90;;;;;;5028961;28;20021;-63
2022/08/13 00:58:43;;;;;;;3.65;2.72;;;19.60;99.90;;;;;;5025751;28;20159;-64
2022/08/13 01:01:11;;;;;;;6.20;3.15;;;19.50;99.90;;;;;;5031416;28;20397;-64
2022/08/13 01:03:38;;;;;;;9.32;2.92;;;19.40;99.90;;;;;;5030300;28;20045;-64
2022/08/13 01:06:07;;;;;;;4.35;2.83;;;19.40;99.90;;;;;;5031195;28;20025;-64
2022/08/13 01:08:36;;;;;;;3.80;2.95;;;19.40;99.90;;;;;;5029128;28;20493;-64
2022/08/13 01:11:06;;;;;;;5.43;3.25;;;19.30;99.90;;;;;;5026365;28;20129;-63
2022/08/13 01:13:33;;;;;;;5.15;2.70;;;19.30;99.90;;;;;;5028669;28;20044;-63
2022/08/13 01:16:02;;;;;;;5.63;2.97;;;19.20;99.90;;;;;;5030865;28;20036;-64
2022/08/13 01:18:28;;;;;;;6.32;3.33;;;19.00;99.90;;;;;;5028740;28;20449;-64
2022/08/13 01:21:07;;;;;;;7.38;3.35;;;19.00;99.90;;;;;;5030675;28;20064;-64
2022/08/13 01:23:32;;;;;;;8.52;3.25;;;18.90;99.90;;;;;;5026799;28;20029;-64
2022/08/13 01:25:59;;;;;;;7.82;3.40;;;18.90;99.90;;;;;;5018524;28;20117;-61
2022/08/13 01:28:29;;;;;;;5.47;2.88;;;18.90;99.90;;;;;;5028117;28;20080;-63
2022/08/13 01:30:57;;;;;;;5.45;3.10;;;18.90;99.90;;;;;;5030445;28;20022;-64
2022/08/13 01:33:23;;;;;;;6.00;3.25;;;18.90;99.90;;;;;;5028960;28;20132;-64
2022/08/13 01:35:50;;;;;;;6.57;3.45;;;18.90;99.90;;;;;;5030451;28;20021;-63
2022/08/13 01:38:16;;;;;;;14.93;3.92;;;18.90;99.90;;;;;;5028536;28;20375;-63
2022/08/13 01:40:43;;;;;;;4.90;3.08;;;18.80;99.90;;;;;;5030607;28;20029;-64
2022/08/13 01:43:10;;;;;;;3.78;2.47;;;18.70;99.90;;;;;;5028961;28;20057;-63
2022/08/13 01:45:37;;;;;;;9.50;2.95;;;18.70;99.90;;;;;;5030358;28;20038;-62
2022/08/13 01:50:49;;;;;;;5.32;3.03;;;18.70;99.90;;;;;;5030476;28;20516;-62
2022/08/13 01:53:16;;;;;;;5.47;2.90;;;18.60;99.90;;;;;;5028366;28;20397;-62
2022/08/13 01:55:46;;;;;;;6.00;2.70;;;18.50;99.90;;;;;;5030042;28;20484;-62
2022/08/13 01:58:13;;;;;;;4.00;2.90;;;18.40;99.90;;;;;;5022565;28;20048;-62
2022/08/13 02:00:44;;;;;;;4.95;3.05;;;18.40;99.90;;;;;;5029262;28;20037;-62
2022/08/13 02:03:11;;;;;;;8.15;3.30;;;18.30;99.90;;;;;;5029970;28;20067;-64
2022/08/13 02:05:38;;;;;;;5.25;2.75;;;18.30;99.90;;;;;;5030231;28;20355;-62
2022/08/13 02:08:11;;;;;;;7.03;3.13;;;18.30;99.90;;;;;;5029908;28;20397;-63
2022/08/13 02:10:39;;;;;;;8.43;3.42;;;18.30;99.90;;;;;;5028423;28;20032;-63
2022/08/13 02:13:17;;;;;;;7.63;3.10;;;18.30;99.90;;;;;;5027947;28;20389;-63
2022/08/13 02:15:46;;;;;;;5.38;3.15;;;18.30;99.90;;;;;;5027004;28;20037;-63
2022/08/13 02:18:17;;;;;;;7.65;3.40;;;18.30;99.90;;;;;;5027094;28;20394;-61
2022/08/13 02:20:44;;;;;;;6.30;3.38;;;18.20;99.90;;;;;;5029692;28;20032;-63
2022/08/13 02:23:14;;;;;;;7.00;3.20;;;18.20;99.90;;;;;;5029370;28;20026;-62
2022/08/13 02:25:41;;;;;;;8.50;3.40;;;18.20;99.90;;;;;;5028021;28;20033;-63
2022/08/13 02:28:10;;;;;;;7.78;3.35;;;18.10;99.90;;;;;;5029026;28;20495;-62
2022/08/13 02:30:36;;;;;;;5.72;3.33;;;18.10;99.90;;;;;;5028620;28;20481;-62
2022/08/13 02:33:05;;;;;;;3.40;3.10;;;18.10;99.90;;;;;;5029669;28;20124;-63
2022/08/13 02:35:31;;;;;;;4.15;2.75;;;18.10;99.90;;;;;;5027066;28;20450;-63
2022/08/13 02:37:57;;;;;;;6.32;3.38;;;18.00;99.90;;;;;;5029380;28;20104;-62
2022/08/13 02:43:07;;;;;;;7.10;3.60;;;17.80;99.90;;;;;;5026971;28;20527;-61
2022/08/13 02:45:32;;;;;;;5.10;3.08;;;17.80;99.90;;;;;;5027923;28;20025;-62
2022/08/13 02:47:58;;;;;;;5.38;2.70;;;17.80;99.90;;;;;;5029169;28;20064;-62
2022/08/13 02:50:27;;;;;;;7.10;3.28;;;17.80;99.90;;;;;;5027636;28;20068;-62
2022/08/13 02:52:53;;;;;;;5.03;3.20;;;17.80;99.90;;;;;;5028200;28;20091;-62
2022/08/13 02:55:20;;;;;;;5.57;3.38;;;17.80;99.90;;;;;;5027285;28;20374;-62
2022/08/13 02:57:47;;;;;;;3.97;3.25;;;17.70;99.90;;;;;;5028563;28;20029;-62
2022/08/13 03:00:14;;;;;;;6.13;2.83;;;17.70;99.90;;;;;;5027530;28;20421;-62
2022/08/13 03:02:44;;;;;;;4.95;3.22;;;17.60;99.90;;;;;;5029424;28;20032;-62
2022/08/13 03:05:15;;;;;;;4.20;3.17;;;17.60;99.90;;;;;;5029377;28;20027;-62
2022/08/13 03:07:44;;;;;;;6.78;3.47;;;17.60;99.90;;;;;;5022159;28;20037;-62
2022/08/13 03:10:12;;;;;;;7.38;3.80;;;17.60;99.90;;;;;;5028575;28;20445;-62
2022/08/13 03:12:41;;;;;;;7.13;3.75;;;17.60;99.90;;;;;;5028302;28;20371;-63
2022/08/13 03:15:10;;;;;;;7.22;3.80;;;17.60;99.90;;;;;;5029035;28;20520;-63
2022/08/13 03:17:37;;;;;;;3.53;3.22;;;17.60;99.90;;;;;;5028971;28;20087;-62
2022/08/13 03:20:06;;;;;;;5.10;3.17;;;17.60;99.90;;;;;;5028772;28;20539;-62
2022/08/13 03:22:31;;;;;;;5.22;3.53;;;17.50;99.90;;;;;;5027337;28;20036;-62
2022/08/13 03:24:57;;;;;;;8.55;3.40;;;17.50;99.90;;;;;;5027837;28;20029;-62
2022/08/13 03:27:26;;;;;;;4.65;3.95;;;17.50;99.90;;;;;;5026777;28;20041;-61
2022/08/13 03:29:53;;;;;;;5.72;3.70;;;17.40;99.90;;;;;;5028907;28;20517;-62
2022/08/13 03:32:19;;;;;;;4.53;3.25;;;17.40;99.90;;;;;;5027254;28;20079;-62
2022/08/13 03:34:44;;;;;;;6.65;3.33;;;17.40;99.90;;;;;;5028989;28;20549;-64
2022/08/13 03:37:11;;;;;;;8.52;3.40;;;17.40;99.90;;;;;;5028623;28;20112;-64
2022/08/13 03:39:37;;;;;;;6.18;3.30;;;17.40;99.90;;;;;;5020779;28;20478;-62
2022/08/13 03:42:02;;;;;;;6.80;3.63;;;17.30;99.90;;;;;;5028869;28;20095;-61
2022/08/13 03:44:32;;;;;;;6.90;4.05;;;17.20;99.90;;;;;;5032280;28;20056;-63
2022/08/13 03:46:58;;;;;;;7.22;3.85;;;17.20;99.90;;;;;;5030971;28;20444;-63
2022/08/13 03:49:24;;;;;;;5.03;3.83;;;17.10;99.90;;;;;;5030221;28;20022;-63
2022/08/13 03:51:50;;;;;;;7.25;3.60;;;17.20;99.90;;;;;;5030735;28;20097;-62
2022/08/13 03:54:16;;;;;;;7.05;4.15;;;17.10;99.90;;;;;;5028984;28;20112;-63
2022/08/13 03:56:42;;;;;;;7.18;4.15;;;17.20;99.90;;;;;;5030895;28;20052;-63
2022/08/13 03:59:09;;;;;;;8.15;4.53;;;17.20;99.90;;;;;;5030862;28;20060;-63
2022/08/13 04:01:35;;;;;;;6.45;4.18;;;17.30;99.90;;;;;;5030546;28;20053;-63
2022/08/13 04:04:02;;;;;;;9.13;4.50;;;17.40;99.90;;;;;;5023990;28;20061;-63
2022/08/13 04:06:28;;;;;;;7.88;4.57;;;17.40;99.90;;;;;;5030437;28;20073;-63
2022/08/13 04:08:56;;;;;;;9.70;4.47;;;17.40;99.90;;;;;;5032125;28;20041;-63
2022/08/13 04:11:22;;;;;;;9.52;4.70;;;17.40;99.90;;;;;;5029784;28;20022;-64
2022/08/13 04:13:48;;;;;;;10.55;4.97;;;17.40;99.90;;;;;;5031797;28;20068;-63
2022/08/13 04:16:20;;;;;;;8.07;5.13;;;17.40;99.90;;;;;;5029468;28;20013;-63
2022/08/13 04:18:48;;;;;;;6.68;4.55;;;17.40;99.90;;;;;;5029109;28;20359;-63
2022/08/13 04:21:15;;;;;;;8.73;5.30;;;17.40;99.90;;;;;;5029750;28;20025;-63
2022/08/13 04:23:43;;;;;;;11.48;4.80;;;17.30;99.90;;;;;;5030112;28;20040;-63
2022/08/13 04:26:11;;;;;;;8.15;4.88;;;17.30;99.90;;;;;;5031285;28;20029;-64
2022/08/13 04:28:38;;;;;;;6.35;4.68;;;17.20;99.90;;;;;;5031047;28;20393;-61
2022/08/13 04:31:05;;;;;;;9.68;5.05;;;17.20;99.90;;;;;;5031620;28;20515;-62
2022/08/13 04:33:31;;;;;;;13.50;5.05;;;17.10;99.90;;;;;;5028112;28;21080;-63
2022/08/13 04:35:57;;;;;;;11.65;5.30;;;17.10;99.90;;;;;;5031123;28;20052;-62
2022/08/13 04:38:23;;;;;;;8.80;5.18;;;17.00;99.90;;;;;;5029941;28;20041;-62
2022/08/13 04:40:51;;;;;;;7.97;4.60;;;17.00;99.90;;;;;;5034170;28;20043;-62
2022/08/13 04:43:17;;;;;;;11.38;5.15;;;17.10;99.90;;;;;;5027672;28;20131;-63
2022/08/13 04:45:43;;;;;;;7.50;4.43;;;17.10;99.90;;;;;;5031254;28;20032;-63
2022/08/13 04:48:13;;;;;;;9.13;4.53;;;17.10;99.90;;;;;;5031455;28;20033;-63
2022/08/13 04:50:40;;;;;;;7.47;4.68;;;17.20;99.90;;;;;;5029174;28;20017;-63
2022/08/13 04:53:19;;;;;;;10.23;4.45;;;17.10;99.90;;;;;;5041273;28;20017;-63
2022/08/13 04:55:46;;;;;;;7.55;4.32;;;17.10;99.90;;;;;;5030973;28;20440;-62
2022/08/13 04:58:12;;;;;;;10.82;4.35;;;17.10;99.90;;;;;;5029128;28;20035;-62
2022/08/13 05:00:37;;;;;;;7.88;4.85;;;17.10;99.90;;;;;;5030876;28;20026;-62
2022/08/13 05:03:14;;;;;;;7.57;4.78;;;17.10;99.90;;;;;;5025637;28;20113;-63
2022/08/13 05:05:46;;;;;;;8.13;5.30;;;17.10;99.90;;;;;;5025124;28;20069;-62
2022/08/13 05:08:15;;;;;;;;;;;17.10;99.90;;;;;;5026567;28;20087;-61
2022/08/13 05:10:44;;;;;;;10.25;4.43;;;17.10;99.90;;;;;;5030628;28;20254;-63
2022/08/13 05:13:25;;;;;;;9.15;4.65;;;17.10;99.90;;;;;;5030201;28;20017;-62
2022/08/13 05:15:54;;;;;;;9.15;4.57;;;17.10;99.90;;;;;;5029897;28;20034;-63
2022/08/13 05:18:20;;;;;;;7.32;4.68;;;17.10;99.90;;;;;;5028667;28;20049;-63
2022/08/13 05:20:46;;;;;;;11.45;5.15;;;17.20;99.90;;;;;;5027871;28;20033;-62
2022/08/13 05:23:16;;;;;;;10.15;4.90;;;17.20;99.90;;;;;;5027409;28;20033;-62
2022/08/13 05:25:45;;;;;;;11.07;5.28;;;17.20;99.90;;;;;;5029489;28;20033;-62
2022/08/13 05:28:11;;;;;;;10.80;5.82;;;17.30;99.90;;;;;;5030012;28;20037;-61
2022/08/13 05:30:38;;;;;;;8.95;5.13;;;17.30;99.90;;;;;;5029468;28;20025;-61
2022/08/13 05:33:22;;;;;;;10.68;5.57;;;17.30;99.90;;;;;;5029533;28;20078;-63
2022/08/13 05:35:50;;;;;;;7.88;5.57;;;17.30;99.90;;;;;;5030435;28;20116;-62
2022/08/13 05:38:22;;;;;;;8.63;5.10;;;17.40;99.90;;;;;;5028622;28;20038;-61
2022/08/13 05:40:49;;;;;;;7.95;4.88;;;17.40;99.90;;;;;;5029848;28;20032;-61
2022/08/13 05:43:18;;;;;;;11.00;6.28;;;17.50;99.90;;;;;;5027657;28;20393;-61
2022/08/13 05:45:48;;;;;;;11.38;5.88;;;17.50;99.90;;;;;;5028806;28;20393;-62
2022/08/13 05:48:14;;;;;;;8.43;5.22;;;17.60;99.90;;;;;;5027702;28;20112;-61
2022/08/13 05:50:42;;;;;;;9.35;5.78;;;17.60;99.90;;;;;;5028363;28;20167;-61
2022/08/13 05:53:09;;;;;;;10.50;5.43;;;17.70;99.90;;;;;;5030137;28;20029;-61
2022/08/13 05:55:40;;;;;;;7.47;4.75;;;17.70;99.90;;;;;;5028587;28;20079;-61
2022/08/13 05:58:08;;;;;;;10.75;6.30;;;17.80;99.90;;;;;;5033999;28;20103;-61
2022/08/13 06:03:27;;;;;;;15.27;6.88;;;17.90;99.90;;;;;;5026219;28;20128;-62
2022/08/13 06:06:03;;;;;;;8.65;6.38;;;18.00;99.90;;;;;;5029469;28;20163;-62
2022/08/13 06:08:32;;;;;;;11.27;5.55;;;18.00;99.90;;;;;;5031339;28;20515;-62
2022/08/13 06:10:59;;;;;;;9.52;5.50;;;18.10;99.90;;;;;;5030635;28;20037;-62
2022/08/13 06:13:26;;;;;;;11.50;5.32;;;18.10;99.90;;;;;;5020595;28;20029;-64
2022/08/13 06:16:00;;;;;;;9.45;5.90;;;18.20;99.90;;;;;;5035738;28;20515;-62
2022/08/13 06:18:30;;;;;;;10.23;6.05;;;18.10;99.90;;;;;;5015032;28;20033;-62
2022/08/13 06:20:58;;;;;;;9.45;6.03;;;18.20;99.90;;;;;;5026650;28;20482;-61
2022/08/13 06:23:26;;;;;;;12.02;6.18;;;18.20;99.90;;;;;;5030844;28;20068;-62
2022/08/13 06:25:54;;;;;;;14.07;7.05;;;18.20;99.90;;;;;;5025833;28;20112;-62
2022/08/13 06:28:21;;;;;;;10.20;6.30;;;18.30;99.90;;;;;;5026276;28;20034;-62
2022/08/13 06:30:49;;;;;;;12.38;6.00;;;18.40;99.90;;;;;;5029427;28;20043;-61
2022/08/13 06:33:19;;;;;;;8.32;6.32;;;18.50;99.90;;;;;;5027346;28;20036;-62
2022/08/13 06:35:45;;;;;;;10.52;5.55;;;18.50;99.90;;;;;;5029046;28;20486;-61
2022/08/13 06:38:12;;;;;;;12.75;5.95;;;18.60;99.90;;;;;;5028356;28;20025;-62
2022/08/13 06:40:42;;;;;;;8.07;5.80;;;18.60;99.90;;;;;;5028534;28;20112;-62
2022/08/13 06:43:09;;;;;;;7.20;5.72;;;18.70;99.90;;;;;;5028126;28;20052;-62
2022/08/13 06:45:36;;;;;;;11.50;5.63;;;18.80;99.90;;;;;;5026303;28;20389;-61
2022/08/13 06:48:03;;;;;;;10.73;5.18;;;18.80;99.90;;;;;;5027637;28;20398;-61
2022/08/13 06:50:34;;;;;;;10.40;6.15;;;18.90;99.90;;;;;;5027099;28;20029;-61
2022/08/13 06:53:06;;;;;;;10.45;5.30;;;19.00;99.90;;;;;;5028275;28;20473;-62
2022/08/13 06:55:36;;;;;;;12.00;5.80;;;18.90;99.90;;;;;;5020840;28;20039;-61
2022/08/13 06:58:04;;;;;;;10.27;5.25;;;19.00;99.90;;;;;;5026762;28;20067;-62
2022/08/13 07:00:31;;;;;;;9.18;5.10;;;19.00;99.90;;;;;;5017831;28;20088;-62
2022/08/13 07:02:58;;;;;;;8.43;4.97;;;19.10;99.90;;;;;;5027738;28;20025;-61
2022/08/13 07:05:41;;;;;;;10.43;6.22;;;19.10;99.90;;;;;;5027274;28;20026;-62
2022/08/13 07:08:11;;;;;;;9.73;5.05;;;19.20;99.90;;;;;;5035634;28;20099;-62
2022/08/13 07:10:43;;;;;;;8.77;4.88;;;19.20;99.90;;;;;;5022652;28;20030;-62
2022/08/13 07:13:09;;;;;;;7.03;4.47;;;19.30;99.90;;;;;;5028071;28;20033;-62
2022/08/13 07:15:36;;;;;;;9.65;5.20;;;19.40;99.90;;;;;;5029089;28;20087;-62
2022/08/13 07:18:04;;;;;;;6.38;4.22;;;19.40;99.90;;;;;;5037160;28;20026;-62
2022/08/13 07:20:30;;;;;;;9.40;4.60;;;19.40;99.90;;;;;;5032816;28;20033;-62
2022/08/13 07:22:57;;;;;;;7.50;4.72;;;19.50;99.90;;;;;;5032177;28;20508;-61
2022/08/13 07:25:26;;;;;;;8.63;4.55;;;19.50;99.90;;;;;;5029960;28;20026;-59
2022/08/13 07:27:52;;;;;;;9.10;4.82;;;19.60;99.90;;;;;;5029894;28;20037;-60
2022/08/13 07:30:19;;;;;;;7.00;4.18;;;19.70;99.90;;;;;;5029344;28;20499;-60
2022/08/13 07:32:45;;;;;;;4.75;4.18;;;19.80;99.90;;;;;;5026548;28;20112;-62
2022/08/13 07:35:11;;;;;;;10.30;3.95;;;19.90;99.90;;;;;;5032722;28;20059;-62
2022/08/13 07:37:39;;;;;;;7.47;3.72;;;20.00;99.90;;;;;;5026970;28;20032;-61
2022/08/13 07:40:08;;;;;;;6.13;3.90;;;20.10;99.90;;;;;;5032392;28;20430;-62
2022/08/13 07:42:38;;;;;;;10.98;4.68;;;20.20;99.90;;;;;;5030236;28;20484;-61
2022/08/13 07:45:05;;;;;;;9.45;3.88;;;20.30;99.90;;;;;;5032265;28;20048;-61
2022/08/13 07:47:32;;;;;;;9.38;4.63;;;20.30;99.90;;;;;;5029495;28;20485;-61
2022/08/13 07:50:01;;;;;;;8.93;3.42;;;20.40;99.90;;;;;;5031847;28;20041;-61
2022/08/13 07:52:29;;;;;;;10.80;3.92;;;20.50;99.90;;;;;;5030121;28;20060;-61
2022/08/13 07:54:56;;;;;;;12.00;3.60;;;20.60;99.90;;;;;;5030091;28;20025;-61
2022/08/13 07:57:25;;;;;;;6.43;3.80;;;20.80;99.90;;;;;;5027270;28;20617;-61
2022/08/13 07:59:51;;;;;;;9.05;4.95;;;20.90;99.90;;;;;;5031757;28;20029;-61
2022/08/13 08:02:18;;;;;;;5.88;4.15;;;20.90;99.90;;;;;;5025615;28;20051;-61
2022/08/13 08:04:44;;;;;;;9.95;3.33;;;21.00;99.90;;;;;;5024452;28;20040;-62
2022/08/13 08:07:12;;;;;;;7.53;4.03;;;21.10;99.90;;;;;;5031634;28;20041;-63
2022/08/13 08:09:38;;;;;;;8.20;4.10;;;21.20;99.90;;;;;;5029968;28;20036;-62
2022/08/13 08:14:53;;;;;;;5.63;4.05;;;21.50;99.90;;;;;;5028871;28;20091;-63
2022/08/13 08:17:20;;;;;;;7.45;3.58;;;21.60;99.90;;;;;;5029013;28;20029;-63
2022/08/13 08:19:50;;;;;;;5.32;3.40;;;21.70;99.90;;;;;;5030303;28;20021;-63
2022/08/13 08:22:17;;;;;;;6.25;3.67;;;21.90;99.90;;;;;;5022363;28;20040;-61
2022/08/13 08:24:50;;;;;;;7.95;3.72;;;22.10;99.90;;;;;;5031521;28;20025;-63
2022/08/13 08:27:19;;;;;;;8.65;3.70;;;22.30;99.90;;;;;;5027288;28;20481;-62
2022/08/13 08:29:46;;;;;;;6.07;2.92;;;22.30;99.90;;;;;;5031351;28;20025;-62
2022/08/13 08:32:14;;;;;;;8.02;3.80;;;22.30;99.90;;;;;;5030595;28;20026;-61
2022/08/13 08:34:46;;;;;;;10.27;3.70;;;22.40;99.90;;;;;;5031283;28;20033;-61
2022/08/13 08:42:35;;;;;;;4.90;3.35;;;22.40;99.90;;;;;;5029008;28;20025;-61
2022/08/13 08:42:52;;;;;;;8.57;3.72;;;22.60;99.90;;;;;;5030863;28;20091;-61
2022/08/13 08:45:20;;;;;;;4.82;3.03;;;22.90;99.90;;;;;;5029103;28;20030;-61
2022/08/13 08:47:48;;;;;;;7.22;5.13;;;23.00;99.90;;;;;;5030852;28;20139;-61
2022/08/13 08:50:15;;;;;;;11.38;3.63;;;23.20;99.90;;;;;;5029550;28;20113;-61
2022/08/13 08:55:27;;;;;;;5.57;2.97;;;23.50;99.90;;;;;;5028426;28;20040;-62
2022/08/13 08:57:53;;;;;;;5.82;3.47;;;23.60;99.90;;;;;;5029338;28;20026;-62
2022/08/13 09:00:20;;;;;;;7.43;3.05;;;23.70;99.90;;;;;;5025777;28;20122;-62
2022/08/13 09:02:50;;;;;;;6.72;3.20;;;24.00;99.90;;;;;;5030190;28;20129;-63
2022/08/13 09:05:20;;;;;;;6.70;2.83;;;24.10;99.90;;;;;;5028440;28;20049;-63
2022/08/13 09:07:47;;;;;;;11.43;3.78;;;24.30;99.90;;;;;;5030340;28;20120;-63
2022/08/13 09:10:15;;;;;;;10.98;2.97;;;24.40;99.90;;;;;;5027619;28;20028;-62
2022/08/13 09:12:42;;;;;;;6.32;2.90;;;24.60;99.90;;;;;;5025765;28;20033;-63
2022/08/13 09:15:10;;;;;;;6.55;2.80;;;24.80;99.90;;;;;;5030039;28;20013;-63
2022/08/13 09:17:37;;;;;;;7.25;2.50;;;25.00;99.90;;;;;;5026528;28;20033;-63
2022/08/13 09:20:05;;;;;;;5.88;2.92;;;25.20;99.90;;;;;;5025629;28;20363;-63
2022/08/13 09:22:31;;;;;;;4.22;2.50;;;25.20;99.90;;;;;;5028954;28;20030;-63
2022/08/13 09:24:58;;;;;;;7.72;2.67;;;25.20;99.90;;;;;;5029387;28;20473;-63
2022/08/13 09:27:26;;;;;;;7.70;2.75;;;25.20;99.90;;;;;;5026405;28;20493;-63
2022/08/13 09:29:52;;;;;;;5.22;2.45;;;25.30;99.90;;;;;;5029984;28;20021;-63
2022/08/13 09:32:18;;;;;;;7.35;2.70;;;25.60;99.90;;;;;;5028523;28;20079;-63
2022/08/13 09:34:44;;;;;;;7.85;3.08;;;25.90;99.90;;;;;;5029330;28;20060;-63
2022/08/13 09:37:12;;;;;;;5.38;2.78;;;26.10;99.90;;;;;;5030132;28;20032;-63
2022/08/13 09:39:49;;;;;;;5.65;2.80;;;26.20;99.90;;;;;;5021888;28;20031;-63
2022/08/13 09:42:24;;;;;;;6.97;2.78;;;26.30;99.90;;;;;;5027263;28;20052;-62
2022/08/13 09:44:54;;;;;;;6.47;2.70;;;26.40;99.90;;;;;;5029196;28;20045;-62
2022/08/13 09:47:21;;;;;;;8.13;2.67;;;26.60;99.90;;;;;;5027578;28;20048;-62
2022/08/13 09:49:48;;;;;;;6.57;2.38;;;26.70;99.90;;;;;;5029902;28;20025;-62
2022/08/13 09:52:15;;;;;;;6.35;2.88;;;26.80;99.90;;;;;;5026600;28;20041;-62
2022/08/13 09:54:41;;;;;;;5.32;2.22;;;26.90;98.50;;;;;;5028954;28;20022;-62
2022/08/13 09:57:07;;;;;;;9.15;2.70;;;26.90;97.70;;;;;;5027059;28;20091;-61
2022/08/13 09:59:33;;;;;;;4.13;2.75;;;27.10;97.20;;;;;;5027967;28;20565;-62
2022/08/13 10:02:08;;;;;;;7.07;2.63;;;27.10;96.70;;;;;;5029705;28;20502;-64
2022/08/13 10:04:33;;;;;;;6.63;3.00;;;27.20;95.90;;;;;;5026454;28;20033;-63
2022/08/13 10:07:00;;;;;;;4.18;2.30;;;27.30;98.30;;;;;;5028958;28;20033;-62
2022/08/13 10:09:26;;;;;;;5.63;2.75;;;27.40;96.90;;;;;;5027374;28;20038;-62
2022/08/13 10:11:53;;;;;;;5.10;2.70;;;27.60;96.60;;;;;;5028292;28;21319;-60
2022/08/13 10:14:19;;;;;;;4.43;2.60;;;27.70;95.80;;;;;;5027897;28;20022;-60
2022/08/13 10:16:45;;;;;;;8.95;3.13;;;27.90;94.10;;;;;;5029383;28;20075;-60
2022/08/13 10:19:11;;;;;;;7.90;3.28;;;28.10;94.20;;;;;;5028855;28;20462;-61
2022/08/13 10:21:37;;;;;;;12.23;2.70;;;28.00;93.40;;;;;;5027657;28;20037;-61
2022/08/13 10:24:04;;;;;;;7.88;2.85;;;28.00;92.00;;;;;;5029046;28;20105;-60
2022/08/13 10:26:30;;;;;;;4.75;2.55;;;28.00;91.80;;;;;;5027399;28;20033;-65
2022/08/13 10:28:55;;;;;;;8.75;3.15;;;28.20;91.40;;;;;;5029192;28;20034;-63
2022/08/13 10:31:27;;;;;;;5.18;2.47;;;28.30;91.10;;;;;;5027392;28;20033;-61
2022/08/13 10:33:54;;;;;;;6.38;2.92;;;28.40;88.60;;;;;;5018626;28;20033;-61
2022/08/13 10:36:21;;;;;;;7.85;2.53;;;28.50;87.50;;;;;;5026660;28;20021;-62
2022/08/13 10:38:47;;;;;;;7.32;2.97;;;28.50;85.90;;;;;;5027475;28;20025;-60
2022/08/13 10:41:13;;;;;;;3.60;2.53;;;28.50;87.40;;;;;;5025649;28;20033;-62
2022/08/13 10:43:38;;;;;;;5.57;2.63;;;28.60;88.10;;;;;;4998972;28;20484;-62
2022/08/13 10:46:07;;;;;;;9.55;2.67;;;28.80;87.60;;;;;;5028549;28;20576;-62
2022/08/13 10:48:32;;;;;;;8.00;2.40;;;29.00;85.30;;;;;;5027120;28;20525;-62
2022/08/13 10:50:58;;;;;;;8.40;2.83;;;29.20;84.50;;;;;;5027790;28;20143;-61
2022/08/13 10:56:10;;;;;;;5.05;2.60;;;29.20;78.00;;;;;;5027920;28;20068;-61
2022/08/13 10:58:35;;;;;;;8.88;2.90;;;29.30;79.00;;;;;;5027317;28;20022;-61
2022/08/13 11:01:03;;;;;;;4.10;2.53;;;29.50;75.90;;;;;;5028243;28;20026;-62
2022/08/13 11:03:33;;;;;;;6.80;2.03;;;29.60;71.30;;;;;;5025556;28;20116;-62
2022/08/13 11:06:04;;;;;;;6.30;2.15;;;29.70;70.10;;;;;;5028512;28;20035;-62
2022/08/13 11:08:37;;;;;;;3.92;2.13;;;29.90;66.50;;;;;;5020477;28;20033;-61
2022/08/13 11:11:08;;;;;;;6.10;2.08;;;30.10;63.70;;;;;;5027508;28;20063;-61
2022/08/13 11:13:39;;;;;;;7.60;2.40;;;30.60;58.50;;;;;;5026862;28;20025;-63
2022/08/13 11:16:54;;;;;;;3.08;2.03;;;31.10;57.70;;;;;;5024312;28;20336;-61
2022/08/13 11:18:54;;;;;;;5.20;2.00;;;31.10;53.70;;;;;;5026559;28;20049;-61
2022/08/13 11:21:20;;;;;;;3.65;2.08;;;31.10;53.60;;;;;;5027324;28;20033;-62
2022/08/13 11:23:45;;;;;;;3.75;2.22;;;31.40;49.90;;;;;;5028312;28;20022;-62
2022/08/13 11:26:11;;;;;;;3.58;2.13;;;31.70;48.80;;;;;;5028607;28;20059;-61
2022/08/13 11:28:37;;;;;;;6.85;2.13;;;32.10;45.90;;;;;;5026666;28;20612;-61
2022/08/13 11:31:02;;;;;;;6.80;2.38;;;32.50;43.40;;;;;;5028819;28;20151;-61
2022/08/13 11:33:30;;;;;;;4.80;1.90;;;32.50;42.50;;;;;;5026101;28;20083;-62
2022/08/13 11:35:56;;;;;;;5.60;2.10;;;32.80;41.80;;;;;;5027615;28;20104;-62
2022/08/13 11:38:22;;;;;;;3.53;1.83;;;32.90;42.00;;;;;;5026967;28;20545;-61
2022/08/13 11:40:54;;;;;;;3.08;1.92;;;33.10;41.10;;;;;;5028574;28;20026;-61
2022/08/13 11:43:24;;;;;;;4.93;2.22;;;33.30;40.90;;;;;;5016678;28;20152;-61
2022/08/13 11:45:50;;;;;;;5.35;2.10;;;33.50;41.00;;;;;;5028545;28;20030;-64
2022/08/13 11:48:17;;;;;;;3.35;1.92;;;33.80;40.10;;;;;;5024886;28;20048;-62
2022/08/13 11:50:43;;;;;;;7.22;2.38;;;34.00;39.30;;;;;;5024331;28;20504;-62
2022/08/13 11:53:09;;;;;;;9.77;2.20;;;34.20;39.40;;;;;;5027333;28;20033;-62
2022/08/13 11:55:35;;;;;;;8.23;1.95;;;34.50;38.80;;;;;;5021374;28;20040;-63
2022/08/13 11:58:08;;;;;;;10.45;2.00;;;34.40;38.40;;;;;;5027476;28;20426;-63
2022/08/13 12:00:39;;;;;;;4.78;1.92;;;34.30;38.10;;;;;;5026559;28;20087;-63
2022/08/13 12:03:05;;;;;;;6.88;2.10;;;34.40;38.30;;;;;;5026530;28;20037;-63
2022/08/13 12:05:31;;;;;;;5.32;1.83;;;34.60;36.50;;;;;;5028822;28;20061;-62
2022/08/13 12:07:57;;;;;;;3.70;1.52;;;34.70;34.80;;;;;;5030525;28;20041;-62
2022/08/13 12:10:23;;;;;;;2.13;1.40;;;34.40;34.90;;;;;;5029320;28;20397;-62
2022/08/13 12:12:49;;;;;;;6.78;1.35;;;34.20;34.10;;;;;;5030137;28;20036;-63
2022/08/13 12:15:15;;;;;;;3.38;1.50;;;34.50;33.50;;;;;;5028995;28;20025;-62
2022/08/13 12:17:46;;;;;;;5.68;1.60;;;34.40;33.60;;;;;;5031132;28;20435;-62
2022/08/13 12:20:15;;;;;;;3.63;1.60;;;33.90;33.50;;;;;;5031016;28;20383;-62
2022/08/13 12:22:41;;;;;;;3.08;1.30;;;33.80;32.90;;;;;;5020836;28;20025;-62
2022/08/13 12:25:10;;;;;;;1.90;1.23;;;33.70;33.20;;;;;;5031144;28;20028;-62
2022/08/13 12:27:37;;;;;;;3.85;1.40;;;33.80;32.00;;;;;;5027856;28;20040;-63
2022/08/13 12:30:04;;;;;;;2.35;1.60;;;33.90;33.20;;;;;;5031041;28;20017;-64
2022/08/13 12:32:30;;;;;;;3.78;1.50;;;34.50;32.80;;;;;;5029097;28;20026;-63
2022/08/13 12:34:55;;;;;;;1.83;1.48;;;34.50;31.80;;;;;;5030771;28;20033;-63
2022/08/13 12:37:25;;;;;;;4.03;1.88;;;35.00;32.30;;;;;;5029028;28;20111;-62
2022/08/13 12:39:55;;;;;;;3.08;1.70;;;34.90;31.50;;;;;;5030945;28;20033;-63
2022/08/13 12:42:25;;;;;;;1.65;1.50;;;35.40;32.10;;;;;;5025535;28;20076;-63
2022/08/13 12:44:52;;;;;;;3.03;1.40;;;35.70;31.60;;;;;;5031050;28;20037;-63
2022/08/13 12:47:18;;;;;;;4.00;1.65;;;35.80;31.20;;;;;;5029299;28;20037;-62
2022/08/13 12:49:43;;;;;;;1.75;1.50;;;36.10;30.50;;;;;;5030369;28;20552;-63
2022/08/13 12:52:09;;;;;;;2.13;1.40;;;36.30;29.90;;;;;;5030751;28;20049;-62
2022/08/13 12:54:35;;;;;;;2.92;1.52;;;36.00;29.60;;;;;;5028315;28;20361;-62
2022/08/13 12:57:01;;;;;;;9.20;1.50;;;36.10;29.60;;;;;;5029983;28;20030;-62
2022/08/13 12:59:27;;;;;;;4.97;1.67;;;36.50;29.80;;;;;;5028747;28;20430;-63
2022/08/13 13:01:53;;;;;;;3.53;1.77;;;36.80;28.90;;;;;;5029151;28;20124;-62
2022/08/13 13:04:22;;;;;;;5.15;1.80;;;36.80;29.00;;;;;;5027661;28;20029;-62
2022/08/13 13:06:52;;;;;;;2.65;1.33;;;36.70;28.70;;;;;;5029734;28;20037;-62
2022/08/13 13:09:19;;;;;;;2.78;1.60;;;36.70;28.70;;;;;;5028605;28;20515;-62
2022/08/13 13:11:45;;;;;;;4.43;1.50;;;37.00;29.20;;;;;;5029845;28;20061;-62
2022/08/13 13:14:10;;;;;;;1.83;1.63;;;37.20;28.50;;;;;;5027154;28;20108;-63
2022/08/13 13:16:38;;;;;;;1.40;1.30;;;36.90;28.80;;;;;;5023008;28;20553;-62